sensor_id;sensor_type;location;lat;lon;timestamp;pressure;altitude;pressure_sealevel;temperature
29423;BMP180;16399;51.686;8.684;2023-09-07T00:02:00;100421.00;;;17.40
29423;BMP180;16399;51.686;8.684;2023-09-07T00:05:03;100417.00;;;17.40
29423;BMP180;16399;51.686;8.684;2023-09-07T00:08:07;100423.00;;;17.40
29423;BMP180;16399;51.686;8.684;2023-09-07T00:11:09;100418.00;;;17.40
29423;BMP180;16399;51.686;8.684;2023-09-07T00:14:12;100421.00;;;17.40
29423;BMP180;16399;51.686;8.684;2023-09-07T00:17:15;100417.00;;;17.40
29423;BMP180;16399;51.686;8.684;2023-09-07T00:20:17;100420.00;;;17.40
29423;BMP180;16399;51.686;8.684;2023-09-07T00:23:20;100413.00;;;17.40
29423;BMP180;16399;51.686;8.684;2023-09-07T00:26:23;100411.00;;;17.40
29423;BMP180;16399;51.686;8.684;2023-09-07T00:29:25;100405.00;;;17.40
29423;BMP180;16399;51.686;8.684;2023-09-07T00:32:27;100405.00;;;17.40
29423;BMP180;16399;51.686;8.684;2023-09-07T00:35:30;100409.00;;;17.30
29423;BMP180;16399;51.686;8.684;2023-09-07T00:38:32;100408.00;;;17.30
29423;BMP180;16399;51.686;8.684;2023-09-07T00:41:35;100401.00;;;17.30
29423;BMP180;16399;51.686;8.684;2023-09-07T00:44:37;100404.00;;;17.30
29423;BMP180;16399;51.686;8.684;2023-09-07T00:47:39;100407.00;;;17.30
29423;BMP180;16399;51.686;8.684;2023-09-07T00:50:42;100407.00;;;17.30
29423;BMP180;16399;51.686;8.684;2023-09-07T00:53:45;100409.00;;;17.30
29423;BMP180;16399;51.686;8.684;2023-09-07T00:56:47;100400.00;;;17.30
29423;BMP180;16399;51.686;8.684;2023-09-07T00:59:49;100405.00;;;17.30
29423;BMP180;16399;51.686;8.684;2023-09-07T01:02:52;100400.00;;;17.30
29423;BMP180;16399;51.686;8.684;2023-09-07T01:06:13;100397.00;;;17.30
29423;BMP180;16399;51.686;8.684;2023-09-07T01:09:19;100399.00;;;17.30
29423;BMP180;16399;51.686;8.684;2023-09-07T01:12:21;100399.00;;;17.30
29423;BMP180;16399;51.686;8.684;2023-09-07T01:15:24;100395.00;;;17.30
29423;BMP180;16399;51.686;8.684;2023-09-07T01:18:26;100389.00;;;17.20
29423;BMP180;16399;51.686;8.684;2023-09-07T01:21:35;100392.00;;;17.20
29423;BMP180;16399;51.686;8.684;2023-09-07T01:24:38;100396.00;;;17.20
29423;BMP180;16399;51.686;8.684;2023-09-07T01:27:41;100393.00;;;17.20
29423;BMP180;16399;51.686;8.684;2023-09-07T01:30:43;100392.00;;;17.10
29423;BMP180;16399;51.686;8.684;2023-09-07T01:33:47;100384.00;;;17.10
29423;BMP180;16399;51.686;8.684;2023-09-07T01:36:49;100390.00;;;17.10
29423;BMP180;16399;51.686;8.684;2023-09-07T01:39:52;100384.00;;;17.20
29423;BMP180;16399;51.686;8.684;2023-09-07T01:42:54;100386.00;;;17.20
29423;BMP180;16399;51.686;8.684;2023-09-07T01:45:56;100386.00;;;17.20
29423;BMP180;16399;51.686;8.684;2023-09-07T01:48:59;100379.00;;;17.10
29423;BMP180;16399;51.686;8.684;2023-09-07T01:52:02;100381.00;;;17.10
29423;BMP180;16399;51.686;8.684;2023-09-07T01:55:04;100381.00;;;17.10
29423;BMP180;16399;51.686;8.684;2023-09-07T01:58:06;100381.00;;;17.10
29423;BMP180;16399;51.686;8.684;2023-09-07T02:01:23;100386.00;;;17.10
29423;BMP180;16399;51.686;8.684;2023-09-07T02:04:23;100381.00;;;17.10
29423;BMP180;16399;51.686;8.684;2023-09-07T02:07:25;100386.00;;;17.10
29423;BMP180;16399;51.686;8.684;2023-09-07T02:10:27;100389.00;;;17.10
29423;BMP180;16399;51.686;8.684;2023-09-07T02:13:30;100389.00;;;17.00
29423;BMP180;16399;51.686;8.684;2023-09-07T02:16:32;100387.00;;;17.00
29423;BMP180;16399;51.686;8.684;2023-09-07T02:19:34;100394.00;;;17.00
29423;BMP180;16399;51.686;8.684;2023-09-07T02:22:37;100389.00;;;16.90
29423;BMP180;16399;51.686;8.684;2023-09-07T02:25:40;100380.00;;;16.90
29423;BMP180;16399;51.686;8.684;2023-09-07T02:28:43;100393.00;;;16.90
29423;BMP180;16399;51.686;8.684;2023-09-07T02:31:45;100386.00;;;16.80
29423;BMP180;16399;51.686;8.684;2023-09-07T02:34:48;100391.00;;;16.80
29423;BMP180;16399;51.686;8.684;2023-09-07T02:37:50;100386.00;;;16.70
29423;BMP180;16399;51.686;8.684;2023-09-07T02:40:52;100385.00;;;16.60
29423;BMP180;16399;51.686;8.684;2023-09-07T02:43:55;100392.00;;;16.50
29423;BMP180;16399;51.686;8.684;2023-09-07T02:46:58;100389.00;;;16.40
29423;BMP180;16399;51.686;8.684;2023-09-07T02:50:00;100384.00;;;16.40
29423;BMP180;16399;51.686;8.684;2023-09-07T02:53:03;100389.00;;;16.30
29423;BMP180;16399;51.686;8.684;2023-09-07T02:56:05;100387.00;;;16.20
29423;BMP180;16399;51.686;8.684;2023-09-07T02:59:08;100382.00;;;16.20
29423;BMP180;16399;51.686;8.684;2023-09-07T03:02:11;100386.00;;;16.10
29423;BMP180;16399;51.686;8.684;2023-09-07T03:05:13;100385.00;;;16.10
29423;BMP180;16399;51.686;8.684;2023-09-07T03:08:15;100403.00;;;16.00
29423;BMP180;16399;51.686;8.684;2023-09-07T03:11:18;100388.00;;;16.00
29423;BMP180;16399;51.686;8.684;2023-09-07T03:14:20;100393.00;;;15.90
29423;BMP180;16399;51.686;8.684;2023-09-07T03:17:23;100388.00;;;15.90
29423;BMP180;16399;51.686;8.684;2023-09-07T03:20:25;100382.00;;;15.90
29423;BMP180;16399;51.686;8.684;2023-09-07T03:23:28;100384.00;;;16.00
29423;BMP180;16399;51.686;8.684;2023-09-07T03:26:31;100388.00;;;16.00
29423;BMP180;16399;51.686;8.684;2023-09-07T03:29:34;100381.00;;;16.10
29423;BMP180;16399;51.686;8.684;2023-09-07T03:32:36;100381.00;;;16.10
29423;BMP180;16399;51.686;8.684;2023-09-07T03:35:39;100376.00;;;16.20
29423;BMP180;16399;51.686;8.684;2023-09-07T03:38:42;100379.00;;;16.30
29423;BMP180;16399;51.686;8.684;2023-09-07T03:41:45;100390.00;;;16.30
29423;BMP180;16399;51.686;8.684;2023-09-07T03:44:47;100383.00;;;16.40
29423;BMP180;16399;51.686;8.684;2023-09-07T03:47:50;100389.00;;;16.40
29423;BMP180;16399;51.686;8.684;2023-09-07T03:50:52;100378.00;;;16.40
29423;BMP180;16399;51.686;8.684;2023-09-07T03:53:57;100384.00;;;16.50
29423;BMP180;16399;51.686;8.684;2023-09-07T03:57:00;100383.00;;;16.50
29423;BMP180;16399;51.686;8.684;2023-09-07T04:00:04;100383.00;;;16.60
29423;BMP180;16399;51.686;8.684;2023-09-07T04:03:08;100380.00;;;16.60
29423;BMP180;16399;51.686;8.684;2023-09-07T04:06:10;100380.00;;;16.70
29423;BMP180;16399;51.686;8.684;2023-09-07T04:09:13;100381.00;;;16.70
29423;BMP180;16399;51.686;8.684;2023-09-07T04:12:15;100385.00;;;16.70
29423;BMP180;16399;51.686;8.684;2023-09-07T04:15:18;100378.00;;;16.70
29423;BMP180;16399;51.686;8.684;2023-09-07T04:18:20;100381.00;;;16.60
29423;BMP180;16399;51.686;8.684;2023-09-07T04:21:22;100369.00;;;16.40
29423;BMP180;16399;51.686;8.684;2023-09-07T04:24:24;100376.00;;;16.30
29423;BMP180;16399;51.686;8.684;2023-09-07T04:27:29;100381.00;;;16.10
29423;BMP180;16399;51.686;8.684;2023-09-07T04:30:36;100387.00;;;16.00
29423;BMP180;16399;51.686;8.684;2023-09-07T04:33:36;100389.00;;;15.80
29423;BMP180;16399;51.686;8.684;2023-09-07T04:36:38;100397.00;;;15.70
29423;BMP180;16399;51.686;8.684;2023-09-07T04:39:40;100391.00;;;15.60
29423;BMP180;16399;51.686;8.684;2023-09-07T04:42:43;100397.00;;;15.50
29423;BMP180;16399;51.686;8.684;2023-09-07T04:45:48;100393.00;;;15.50
29423;BMP180;16399;51.686;8.684;2023-09-07T04:48:50;100392.00;;;15.50
29423;BMP180;16399;51.686;8.684;2023-09-07T04:51:56;100390.00;;;15.60
29423;BMP180;16399;51.686;8.684;2023-09-07T04:54:58;100391.00;;;15.60
29423;BMP180;16399;51.686;8.684;2023-09-07T04:58:01;100385.00;;;15.70
29423;BMP180;16399;51.686;8.684;2023-09-07T05:01:05;100394.00;;;15.70
29423;BMP180;16399;51.686;8.684;2023-09-07T05:04:08;100388.00;;;15.80
29423;BMP180;16399;51.686;8.684;2023-09-07T05:07:10;100382.00;;;15.80
29423;BMP180;16399;51.686;8.684;2023-09-07T05:10:13;100387.00;;;15.80
29423;BMP180;16399;51.686;8.684;2023-09-07T05:13:15;100390.00;;;15.90
29423;BMP180;16399;51.686;8.684;2023-09-07T05:16:18;100382.00;;;15.90
29423;BMP180;16399;51.686;8.684;2023-09-07T05:19:22;100376.00;;;16.00
29423;BMP180;16399;51.686;8.684;2023-09-07T05:22:24;100395.00;;;16.10
29423;BMP180;16399;51.686;8.684;2023-09-07T05:25:27;100399.00;;;16.20
29423;BMP180;16399;51.686;8.684;2023-09-07T05:28:30;100404.00;;;16.30
29423;BMP180;16399;51.686;8.684;2023-09-07T05:31:32;100402.00;;;16.30
29423;BMP180;16399;51.686;8.684;2023-09-07T05:34:34;100398.00;;;16.40
29423;BMP180;16399;51.686;8.684;2023-09-07T05:37:36;100395.00;;;16.50
29423;BMP180;16399;51.686;8.684;2023-09-07T05:40:43;100396.00;;;16.70
29423;BMP180;16399;51.686;8.684;2023-09-07T05:43:46;100400.00;;;16.80
29423;BMP180;16399;51.686;8.684;2023-09-07T05:46:50;100393.00;;;16.90
29423;BMP180;16399;51.686;8.684;2023-09-07T05:49:52;100389.00;;;17.10
29423;BMP180;16399;51.686;8.684;2023-09-07T05:52:55;100393.00;;;17.30
29423;BMP180;16399;51.686;8.684;2023-09-07T05:55:57;100389.00;;;17.40
29423;BMP180;16399;51.686;8.684;2023-09-07T05:58:59;100401.00;;;17.50
29423;BMP180;16399;51.686;8.684;2023-09-07T06:02:02;100401.00;;;17.60
29423;BMP180;16399;51.686;8.684;2023-09-07T06:05:05;100409.00;;;17.60
29423;BMP180;16399;51.686;8.684;2023-09-07T06:08:08;100401.00;;;17.70
29423;BMP180;16399;51.686;8.684;2023-09-07T06:11:10;100417.00;;;17.80
29423;BMP180;16399;51.686;8.684;2023-09-07T06:14:12;100409.00;;;17.90
29423;BMP180;16399;51.686;8.684;2023-09-07T06:17:15;100409.00;;;17.90
29423;BMP180;16399;51.686;8.684;2023-09-07T06:20:17;100411.00;;;18.10
29423;BMP180;16399;51.686;8.684;2023-09-07T06:23:20;100413.00;;;18.20
29423;BMP180;16399;51.686;8.684;2023-09-07T06:26:23;100415.00;;;18.30
29423;BMP180;16399;51.686;8.684;2023-09-07T06:29:25;100405.00;;;18.40
29423;BMP180;16399;51.686;8.684;2023-09-07T06:32:27;100412.00;;;18.50
29423;BMP180;16399;51.686;8.684;2023-09-07T06:35:29;100418.00;;;18.60
29423;BMP180;16399;51.686;8.684;2023-09-07T06:38:32;100406.00;;;18.70
29423;BMP180;16399;51.686;8.684;2023-09-07T06:41:34;100418.00;;;18.90
29423;BMP180;16399;51.686;8.684;2023-09-07T06:44:36;100418.00;;;19.00
29423;BMP180;16399;51.686;8.684;2023-09-07T06:47:39;100406.00;;;19.20
29423;BMP180;16399;51.686;8.684;2023-09-07T06:50:41;100412.00;;;19.30
29423;BMP180;16399;51.686;8.684;2023-09-07T06:53:43;100407.00;;;19.50
29423;BMP180;16399;51.686;8.684;2023-09-07T06:56:46;100410.00;;;19.60
29423;BMP180;16399;51.686;8.684;2023-09-07T06:59:48;100403.00;;;19.70
29423;BMP180;16399;51.686;8.684;2023-09-07T07:02:50;100402.00;;;19.90
29423;BMP180;16399;51.686;8.684;2023-09-07T07:05:53;100405.00;;;20.00
29423;BMP180;16399;51.686;8.684;2023-09-07T07:08:55;100407.00;;;20.10
29423;BMP180;16399;51.686;8.684;2023-09-07T07:11:59;100411.00;;;20.30
29423;BMP180;16399;51.686;8.684;2023-09-07T07:15:04;100410.00;;;20.40
29423;BMP180;16399;51.686;8.684;2023-09-07T07:18:07;100420.00;;;20.50
29423;BMP180;16399;51.686;8.684;2023-09-07T07:21:12;100422.00;;;20.60
29423;BMP180;16399;51.686;8.684;2023-09-07T07:24:14;100427.00;;;20.70
29423;BMP180;16399;51.686;8.684;2023-09-07T07:27:17;100424.00;;;20.80
29423;BMP180;16399;51.686;8.684;2023-09-07T07:30:19;100423.00;;;21.00
29423;BMP180;16399;51.686;8.684;2023-09-07T07:33:22;100422.00;;;21.10
29423;BMP180;16399;51.686;8.684;2023-09-07T07:36:24;100426.00;;;21.20
29423;BMP180;16399;51.686;8.684;2023-09-07T07:39:27;100428.00;;;21.30
29423;BMP180;16399;51.686;8.684;2023-09-07T07:42:29;100437.00;;;21.50
29423;BMP180;16399;51.686;8.684;2023-09-07T07:45:34;100430.00;;;21.60
29423;BMP180;16399;51.686;8.684;2023-09-07T07:48:38;100433.00;;;21.70
29423;BMP180;16399;51.686;8.684;2023-09-07T07:51:40;100427.00;;;21.80
29423;BMP180;16399;51.686;8.684;2023-09-07T07:54:43;100423.00;;;22.00
29423;BMP180;16399;51.686;8.684;2023-09-07T07:57:46;100417.00;;;22.10
29423;BMP180;16399;51.686;8.684;2023-09-07T08:00:48;100419.00;;;22.20
29423;BMP180;16399;51.686;8.684;2023-09-07T08:03:50;100425.00;;;22.40
29423;BMP180;16399;51.686;8.684;2023-09-07T08:06:52;100421.00;;;22.60
29423;BMP180;16399;51.686;8.684;2023-09-07T08:09:56;100420.00;;;22.80
29423;BMP180;16399;51.686;8.684;2023-09-07T08:12:59;100416.00;;;23.00
29423;BMP180;16399;51.686;8.684;2023-09-07T08:16:03;100422.00;;;23.20
29423;BMP180;16399;51.686;8.684;2023-09-07T08:19:05;100416.00;;;23.40
29423;BMP180;16399;51.686;8.684;2023-09-07T08:22:08;100409.00;;;23.50
29423;BMP180;16399;51.686;8.684;2023-09-07T08:25:11;100403.00;;;23.70
29423;BMP180;16399;51.686;8.684;2023-09-07T08:28:17;100400.00;;;24.00
29423;BMP180;16399;51.686;8.684;2023-09-07T08:31:19;100402.00;;;24.20
29423;BMP180;16399;51.686;8.684;2023-09-07T08:34:23;100398.00;;;24.30
29423;BMP180;16399;51.686;8.684;2023-09-07T08:37:25;100401.00;;;24.60
29423;BMP180;16399;51.686;8.684;2023-09-07T08:40:28;100397.00;;;24.80
29423;BMP180;16399;51.686;8.684;2023-09-07T08:43:33;100395.00;;;25.00
29423;BMP180;16399;51.686;8.684;2023-09-07T08:46:37;100402.00;;;25.10
29423;BMP180;16399;51.686;8.684;2023-09-07T08:49:40;100405.00;;;25.30
29423;BMP180;16399;51.686;8.684;2023-09-07T08:52:45;100403.00;;;25.40
29423;BMP180;16399;51.686;8.684;2023-09-07T08:55:48;100405.00;;;25.60
29423;BMP180;16399;51.686;8.684;2023-09-07T08:58:50;100395.00;;;25.70
29423;BMP180;16399;51.686;8.684;2023-09-07T09:01:57;100401.00;;;25.90
29423;BMP180;16399;51.686;8.684;2023-09-07T09:05:04;100395.00;;;26.00
29423;BMP180;16399;51.686;8.684;2023-09-07T09:08:07;100402.00;;;26.10
29423;BMP180;16399;51.686;8.684;2023-09-07T09:11:10;100401.00;;;26.20
29423;BMP180;16399;51.686;8.684;2023-09-07T09:14:16;100393.00;;;26.40
29423;BMP180;16399;51.686;8.684;2023-09-07T09:17:17;100394.00;;;26.50
29423;BMP180;16399;51.686;8.684;2023-09-07T09:20:24;100396.00;;;26.60
29423;BMP180;16399;51.686;8.684;2023-09-07T09:23:35;100385.00;;;26.70
29423;BMP180;16399;51.686;8.684;2023-09-07T09:26:38;100392.00;;;26.80
29423;BMP180;16399;51.686;8.684;2023-09-07T09:29:40;100383.00;;;26.90
29423;BMP180;16399;51.686;8.684;2023-09-07T09:32:43;100389.00;;;27.00
29423;BMP180;16399;51.686;8.684;2023-09-07T09:35:45;100393.00;;;27.10
29423;BMP180;16399;51.686;8.684;2023-09-07T09:38:51;100388.00;;;27.20
29423;BMP180;16399;51.686;8.684;2023-09-07T09:41:55;100390.00;;;27.40
29423;BMP180;16399;51.686;8.684;2023-09-07T09:44:59;100382.00;;;27.50
29423;BMP180;16399;51.686;8.684;2023-09-07T09:48:03;100383.00;;;27.50
29423;BMP180;16399;51.686;8.684;2023-09-07T09:51:07;100390.00;;;27.60
29423;BMP180;16399;51.686;8.684;2023-09-07T09:54:10;100391.00;;;27.70
29423;BMP180;16399;51.686;8.684;2023-09-07T09:57:14;100390.00;;;27.80
29423;BMP180;16399;51.686;8.684;2023-09-07T10:00:17;100390.00;;;27.90
29423;BMP180;16399;51.686;8.684;2023-09-07T10:03:28;100386.00;;;28.00
29423;BMP180;16399;51.686;8.684;2023-09-07T10:06:31;100379.00;;;27.90
29423;BMP180;16399;51.686;8.684;2023-09-07T10:09:34;100376.00;;;27.90
29423;BMP180;16399;51.686;8.684;2023-09-07T10:12:50;100370.00;;;27.90
29423;BMP180;16399;51.686;8.684;2023-09-07T10:15:48;100376.00;;;27.90
29423;BMP180;16399;51.686;8.684;2023-09-07T10:18:52;100374.00;;;27.90
29423;BMP180;16399;51.686;8.684;2023-09-07T10:21:55;100376.00;;;27.90
29423;BMP180;16399;51.686;8.684;2023-09-07T10:24:58;100372.00;;;28.00
29423;BMP180;16399;51.686;8.684;2023-09-07T10:28:00;100361.00;;;28.10
29423;BMP180;16399;51.686;8.684;2023-09-07T10:31:05;100368.00;;;28.20
29423;BMP180;16399;51.686;8.684;2023-09-07T10:34:11;100366.00;;;28.20
29423;BMP180;16399;51.686;8.684;2023-09-07T10:37:14;100366.00;;;28.20
29423;BMP180;16399;51.686;8.684;2023-09-07T10:40:25;100368.00;;;28.30
29423;BMP180;16399;51.686;8.684;2023-09-07T10:43:28;100365.00;;;28.30
29423;BMP180;16399;51.686;8.684;2023-09-07T10:46:31;100362.00;;;28.30
29423;BMP180;16399;51.686;8.684;2023-09-07T10:49:35;100367.00;;;28.30
29423;BMP180;16399;51.686;8.684;2023-09-07T10:52:37;100363.00;;;28.30
29423;BMP180;16399;51.686;8.684;2023-09-07T10:55:40;100371.00;;;28.40
29423;BMP180;16399;51.686;8.684;2023-09-07T10:58:46;100367.00;;;28.30
29423;BMP180;16399;51.686;8.684;2023-09-07T11:01:50;100364.00;;;28.30
29423;BMP180;16399;51.686;8.684;2023-09-07T11:04:53;100353.00;;;28.30
29423;BMP180;16399;51.686;8.684;2023-09-07T11:07:56;100347.00;;;28.30
29423;BMP180;16399;51.686;8.684;2023-09-07T11:11:07;100354.00;;;28.40
29423;BMP180;16399;51.686;8.684;2023-09-07T11:14:05;100351.00;;;28.50
29423;BMP180;16399;51.686;8.684;2023-09-07T11:17:07;100355.00;;;28.40
29423;BMP180;16399;51.686;8.684;2023-09-07T11:20:10;100341.00;;;28.40
29423;BMP180;16399;51.686;8.684;2023-09-07T11:23:13;100346.00;;;28.50
29423;BMP180;16399;51.686;8.684;2023-09-07T11:26:15;100335.00;;;28.60
29423;BMP180;16399;51.686;8.684;2023-09-07T11:29:19;100350.00;;;28.60
29423;BMP180;16399;51.686;8.684;2023-09-07T11:32:21;100340.00;;;28.70
29423;BMP180;16399;51.686;8.684;2023-09-07T11:35:24;100340.00;;;28.70
29423;BMP180;16399;51.686;8.684;2023-09-07T11:38:35;100337.00;;;28.80
29423;BMP180;16399;51.686;8.684;2023-09-07T11:41:34;100346.00;;;28.90
29423;BMP180;16399;51.686;8.684;2023-09-07T11:44:36;100342.00;;;28.90
29423;BMP180;16399;51.686;8.684;2023-09-07T11:47:39;100335.00;;;28.90
29423;BMP180;16399;51.686;8.684;2023-09-07T11:50:43;100338.00;;;28.90
29423;BMP180;16399;51.686;8.684;2023-09-07T11:53:44;100333.00;;;28.90
29423;BMP180;16399;51.686;8.684;2023-09-07T11:56:47;100324.00;;;29.00
29423;BMP180;16399;51.686;8.684;2023-09-07T11:59:50;100330.00;;;29.00
29423;BMP180;16399;51.686;8.684;2023-09-07T12:02:52;100326.00;;;29.00
29423;BMP180;16399;51.686;8.684;2023-09-07T12:05:54;100321.00;;;29.10
29423;BMP180;16399;51.686;8.684;2023-09-07T12:09:00;100320.00;;;29.10
29423;BMP180;16399;51.686;8.684;2023-09-07T12:12:04;100320.00;;;29.00
29423;BMP180;16399;51.686;8.684;2023-09-07T12:15:06;100321.00;;;29.00
29423;BMP180;16399;51.686;8.684;2023-09-07T12:18:09;100311.00;;;29.00
29423;BMP180;16399;51.686;8.684;2023-09-07T12:21:11;100312.00;;;29.10
29423;BMP180;16399;51.686;8.684;2023-09-07T12:24:14;100312.00;;;29.10
29423;BMP180;16399;51.686;8.684;2023-09-07T12:27:16;100309.00;;;29.20
29423;BMP180;16399;51.686;8.684;2023-09-07T12:30:20;100307.00;;;29.30
29423;BMP180;16399;51.686;8.684;2023-09-07T12:33:23;100303.00;;;29.40
29423;BMP180;16399;51.686;8.684;2023-09-07T12:36:26;100305.00;;;29.40
29423;BMP180;16399;51.686;8.684;2023-09-07T12:39:29;100302.00;;;29.50
29423;BMP180;16399;51.686;8.684;2023-09-07T12:42:31;100304.00;;;29.50
29423;BMP180;16399;51.686;8.684;2023-09-07T12:45:33;100302.00;;;29.60
29423;BMP180;16399;51.686;8.684;2023-09-07T12:48:36;100292.00;;;29.60
29423;BMP180;16399;51.686;8.684;2023-09-07T12:51:38;100284.00;;;29.60
29423;BMP180;16399;51.686;8.684;2023-09-07T12:54:40;100292.00;;;29.60
29423;BMP180;16399;51.686;8.684;2023-09-07T12:57:43;100286.00;;;29.70
29423;BMP180;16399;51.686;8.684;2023-09-07T13:00:45;100289.00;;;29.70
29423;BMP180;16399;51.686;8.684;2023-09-07T13:03:49;100286.00;;;29.60
29423;BMP180;16399;51.686;8.684;2023-09-07T13:06:51;100282.00;;;29.60
29423;BMP180;16399;51.686;8.684;2023-09-07T13:09:54;100284.00;;;29.50
29423;BMP180;16399;51.686;8.684;2023-09-07T13:12:56;100279.00;;;29.50
29423;BMP180;16399;51.686;8.684;2023-09-07T13:15:59;100277.00;;;29.60
29423;BMP180;16399;51.686;8.684;2023-09-07T13:19:02;100285.00;;;29.60
29423;BMP180;16399;51.686;8.684;2023-09-07T13:22:04;100274.00;;;29.70
29423;BMP180;16399;51.686;8.684;2023-09-07T13:25:08;100279.00;;;29.70
29423;BMP180;16399;51.686;8.684;2023-09-07T13:28:10;100278.00;;;29.70
29423;BMP180;16399;51.686;8.684;2023-09-07T13:31:12;100274.00;;;29.60
29423;BMP180;16399;51.686;8.684;2023-09-07T13:34:15;100272.00;;;29.50
29423;BMP180;16399;51.686;8.684;2023-09-07T13:37:17;100266.00;;;29.40
29423;BMP180;16399;51.686;8.684;2023-09-07T13:40:19;100271.00;;;29.40
29423;BMP180;16399;51.686;8.684;2023-09-07T13:43:22;100267.00;;;29.40
29423;BMP180;16399;51.686;8.684;2023-09-07T13:46:25;100270.00;;;29.30
29423;BMP180;16399;51.686;8.684;2023-09-07T13:49:27;100265.00;;;29.30
29423;BMP180;16399;51.686;8.684;2023-09-07T13:52:29;100249.00;;;29.30
29423;BMP180;16399;51.686;8.684;2023-09-07T13:55:32;100260.00;;;29.30
29423;BMP180;16399;51.686;8.684;2023-09-07T13:58:35;100260.00;;;29.20
29423;BMP180;16399;51.686;8.684;2023-09-07T14:01:37;100254.00;;;29.20
29423;BMP180;16399;51.686;8.684;2023-09-07T14:04:39;100258.00;;;29.20
29423;BMP180;16399;51.686;8.684;2023-09-07T14:07:42;100249.00;;;29.20
29423;BMP180;16399;51.686;8.684;2023-09-07T14:10:44;100249.00;;;29.10
29423;BMP180;16399;51.686;8.684;2023-09-07T14:13:47;100252.00;;;29.20
29423;BMP180;16399;51.686;8.684;2023-09-07T14:16:53;100246.00;;;29.10
29423;BMP180;16399;51.686;8.684;2023-09-07T14:19:57;100241.00;;;29.10
29423;BMP180;16399;51.686;8.684;2023-09-07T14:22:59;100242.00;;;29.10
29423;BMP180;16399;51.686;8.684;2023-09-07T14:26:01;100236.00;;;29.10
29423;BMP180;16399;51.686;8.684;2023-09-07T14:29:04;100237.00;;;29.10
29423;BMP180;16399;51.686;8.684;2023-09-07T14:32:06;100235.00;;;29.10
29423;BMP180;16399;51.686;8.684;2023-09-07T14:35:08;100231.00;;;29.10
29423;BMP180;16399;51.686;8.684;2023-09-07T14:38:12;100236.00;;;29.10
29423;BMP180;16399;51.686;8.684;2023-09-07T14:41:14;100241.00;;;29.10
29423;BMP180;16399;51.686;8.684;2023-09-07T14:44:22;100250.00;;;29.10
29423;BMP180;16399;51.686;8.684;2023-09-07T14:47:25;100240.00;;;29.10
29423;BMP180;16399;51.686;8.684;2023-09-07T14:50:27;100241.00;;;29.10
29423;BMP180;16399;51.686;8.684;2023-09-07T14:53:30;100234.00;;;29.10
29423;BMP180;16399;51.686;8.684;2023-09-07T14:56:33;100234.00;;;29.10
29423;BMP180;16399;51.686;8.684;2023-09-07T14:59:36;100241.00;;;29.10
29423;BMP180;16399;51.686;8.684;2023-09-07T15:02:40;100240.00;;;29.10
29423;BMP180;16399;51.686;8.684;2023-09-07T15:05:42;100229.00;;;29.10
29423;BMP180;16399;51.686;8.684;2023-09-07T15:08:44;100230.00;;;29.10
29423;BMP180;16399;51.686;8.684;2023-09-07T15:11:47;100225.00;;;29.10
29423;BMP180;16399;51.686;8.684;2023-09-07T15:14:49;100226.00;;;29.00
29423;BMP180;16399;51.686;8.684;2023-09-07T15:17:51;100227.00;;;29.00
29423;BMP180;16399;51.686;8.684;2023-09-07T15:20:53;100225.00;;;29.00
29423;BMP180;16399;51.686;8.684;2023-09-07T15:23:56;100222.00;;;29.00
29423;BMP180;16399;51.686;8.684;2023-09-07T15:26:58;100215.00;;;28.90
29423;BMP180;16399;51.686;8.684;2023-09-07T15:30:01;100224.00;;;28.90
29423;BMP180;16399;51.686;8.684;2023-09-07T15:33:04;100208.00;;;28.90
29423;BMP180;16399;51.686;8.684;2023-09-07T15:36:07;100213.00;;;28.80
29423;BMP180;16399;51.686;8.684;2023-09-07T15:39:09;100221.00;;;28.80
29423;BMP180;16399;51.686;8.684;2023-09-07T15:42:11;100213.00;;;28.80
29423;BMP180;16399;51.686;8.684;2023-09-07T15:45:14;100218.00;;;28.80
29423;BMP180;16399;51.686;8.684;2023-09-07T15:48:17;100213.00;;;28.70
29423;BMP180;16399;51.686;8.684;2023-09-07T15:51:19;100215.00;;;28.70
29423;BMP180;16399;51.686;8.684;2023-09-07T15:54:21;100217.00;;;28.70
29423;BMP180;16399;51.686;8.684;2023-09-07T15:57:25;100208.00;;;28.70
29423;BMP180;16399;51.686;8.684;2023-09-07T16:00:27;100210.00;;;28.70
29423;BMP180;16399;51.686;8.684;2023-09-07T16:03:30;100200.00;;;28.70
29423;BMP180;16399;51.686;8.684;2023-09-07T16:06:32;100205.00;;;28.70
29423;BMP180;16399;51.686;8.684;2023-09-07T16:09:35;100198.00;;;28.60
29423;BMP180;16399;51.686;8.684;2023-09-07T16:12:37;100202.00;;;28.50
29423;BMP180;16399;51.686;8.684;2023-09-07T16:15:39;100197.00;;;28.50
29423;BMP180;16399;51.686;8.684;2023-09-07T16:18:42;100196.00;;;28.50
29423;BMP180;16399;51.686;8.684;2023-09-07T16:21:44;100198.00;;;28.40
29423;BMP180;16399;51.686;8.684;2023-09-07T16:24:46;100197.00;;;28.40
29423;BMP180;16399;51.686;8.684;2023-09-07T16:27:48;100189.00;;;28.40
29423;BMP180;16399;51.686;8.684;2023-09-07T16:30:52;100191.00;;;28.30
29423;BMP180;16399;51.686;8.684;2023-09-07T16:33:55;100188.00;;;28.30
29423;BMP180;16399;51.686;8.684;2023-09-07T16:36:57;100187.00;;;28.20
29423;BMP180;16399;51.686;8.684;2023-09-07T16:40:00;100191.00;;;28.20
29423;BMP180;16399;51.686;8.684;2023-09-07T16:43:02;100185.00;;;28.20
29423;BMP180;16399;51.686;8.684;2023-09-07T16:46:04;100184.00;;;28.30
29423;BMP180;16399;51.686;8.684;2023-09-07T16:49:07;100187.00;;;28.20
29423;BMP180;16399;51.686;8.684;2023-09-07T16:52:09;100190.00;;;28.10
29423;BMP180;16399;51.686;8.684;2023-09-07T16:55:11;100187.00;;;28.00
29423;BMP180;16399;51.686;8.684;2023-09-07T16:58:14;100180.00;;;27.80
29423;BMP180;16399;51.686;8.684;2023-09-07T17:01:16;100192.00;;;27.70
29423;BMP180;16399;51.686;8.684;2023-09-07T17:04:33;100191.00;;;27.50
29423;BMP180;16399;51.686;8.684;2023-09-07T17:07:37;100194.00;;;27.40
29423;BMP180;16399;51.686;8.684;2023-09-07T17:10:42;100195.00;;;27.20
29423;BMP180;16399;51.686;8.684;2023-09-07T17:13:44;100196.00;;;27.10
29423;BMP180;16399;51.686;8.684;2023-09-07T17:16:47;100195.00;;;27.00
29423;BMP180;16399;51.686;8.684;2023-09-07T17:19:50;100192.00;;;26.90